Time;durP1;ratioP1;P1;durP2;ratioP2;P2;SDS_P1;SDS_P2;PMS_P1;PMS_P2;Temp;Humidity;BMP_temperature;BMP_pressure;BME280_temperature;BME280_humidity;BME280_pressure;Samples;Min_cycle;Max_cycle;Signal;HPM_P1;HPM_P2
2021/08/10 00:01:14;;;;;;;5.25;3.80;;;;;;;;;;3537865;40;20452;-51
2021/08/10 00:03:42;;;;;;;6.15;4.20;;;;;;;;;;3538060;40;20062;-52
2021/08/10 00:06:09;;;;;;;5.47;3.60;;;;;;;;;;3542197;40;20057;-51
2021/08/10 00:08:36;;;;;;;9.45;4.35;;;;;;;;;;3548068;40;20440;-55
2021/08/10 00:11:04;;;;;;;5.57;4.10;;;;;;;;;;3547795;40;20054;-53
2021/08/10 00:13:31;;;;;;;4.85;3.92;;;;;;;;;;3547956;40;20505;-50
2021/08/10 00:15:58;;;;;;;7.40;3.97;;;;;;;;;;3547621;40;20070;-54
2021/08/10 00:18:26;;;;;;;4.75;3.70;;;;;;;;;;3547595;40;20054;-56
2021/08/10 00:20:53;;;;;;;5.07;4.00;;;;;;;;;;3545337;40;20090;-54
2021/08/10 00:23:20;;;;;;;4.22;3.83;;;;;;;;;;3537811;40;20439;-55
2021/08/10 00:25:48;;;;;;;5.60;4.40;;;;;;;;;;3537840;40;20069;-50
2021/08/10 00:28:16;;;;;;;9.35;4.15;;;;;;;;;;3538039;40;20061;-52
2021/08/10 00:30:44;;;;;;;7.47;4.80;;;;;;;;;;3538079;40;20058;-53
2021/08/10 00:33:13;;;;;;;10.35;4.45;;;;;;;;;;3537870;40;20417;-54
2021/08/10 00:35:41;;;;;;;5.10;4.30;;;;;;;;;;3537877;40;20050;-51
2021/08/10 00:38:09;;;;;;;5.45;3.90;;;;;;;;;;3537853;40;20055;-51
2021/08/10 00:40:38;;;;;;;4.25;3.85;;;;;;;;;;3537619;40;20057;-55
2021/08/10 00:43:27;;;;;;;5.90;4.40;;;;;;;;;;3537909;40;20069;-52
2021/08/10 00:45:55;;;;;;;5.07;4.57;;;;;;;;;;3527780;40;20054;-48
2021/08/10 00:48:23;;;;;;;8.63;4.93;;;;;;;;;;3528735;40;20154;-55
2021/08/10 00:50:52;;;;;;;6.68;5.32;;;;;;;;;;3528661;40;20405;-54
2021/08/10 00:53:20;;;;;;;7.57;4.75;;;;;;;;;;3528935;40;20057;-54
2021/08/10 00:55:49;;;;;;;6.43;5.15;;;;;;;;;;3528511;40;20059;-53
2021/08/10 00:58:21;;;;;;;8.30;5.60;;;;;;;;;;3537657;40;20432;-53
2021/08/10 01:00:49;;;;;;;8.73;5.20;;;;;;;;;;3536616;40;20058;-50
2021/08/10 01:03:17;;;;;;;9.20;7.03;;;;;;;;;;3528585;40;20106;-58
2021/08/10 01:05:48;;;;;;;10.15;5.20;;;;;;;;;;3536813;40;20047;-53
2021/08/10 01:08:47;;;;;;;5.35;4.80;;;;;;;;;;3528398;40;20069;-55
2021/08/10 01:11:47;;;;;;;7.30;5.25;;;;;;;;;;3528721;40;20066;-50
2021/08/10 01:14:54;;;;;;;7.75;5.35;;;;;;;;;;3528561;40;20091;-54
2021/08/10 01:17:59;;;;;;;6.63;5.93;;;;;;;;;;3528535;40;20404;-54
2021/08/10 01:21:06;;;;;;;6.93;6.13;;;;;;;;;;3526125;40;20058;-49
2021/08/10 01:23:35;;;;;;;11.30;8.48;;;;;;;;;;3526155;40;20062;-53
2021/08/10 01:26:22;;;;;;;10.65;6.70;;;;;;;;;;3528545;40;20070;-53
2021/08/10 01:29:09;;;;;;;10.27;7.18;;;;;;;;;;3528371;40;20058;-52
2021/08/10 01:31:42;;;;;;;14.57;10.32;;;;;;;;;;3536344;40;20492;-52
2021/08/10 01:34:23;;;;;;;10.20;9.10;;;;;;;;;;3537788;40;20077;-52
2021/08/10 01:37:01;;;;;;;11.80;8.18;;;;;;;;;;3537674;40;20425;-56
2021/08/10 01:39:32;;;;;;;7.70;6.90;;;;;;;;;;3536540;40;20054;-53
2021/08/10 01:42:00;;;;;;;9.00;7.75;;;;;;;;;;3537780;40;20062;-52
2021/08/10 01:44:33;;;;;;;11.07;8.32;;;;;;;;;;3537846;40;20047;-55
2021/08/10 01:47:08;;;;;;;8.18;7.32;;;;;;;;;;3528627;40;20455;-54
2021/08/10 01:49:39;;;;;;;13.15;9.07;;;;;;;;;;3527694;40;20063;-53
2021/08/10 01:52:17;;;;;;;9.57;7.70;;;;;;;;;;3537428;40;20054;-52
2021/08/10 01:54:48;;;;;;;10.02;7.40;;;;;;;;;;3537492;40;20087;-52
2021/08/10 01:57:19;;;;;;;10.73;7.20;;;;;;;;;;3536469;40;20057;-53
2021/08/10 01:59:51;;;;;;;9.70;8.10;;;;;;;;;;3528113;40;20050;-56
2021/08/10 02:02:21;;;;;;;12.25;9.10;;;;;;;;;;3528270;40;20066;-54
2021/08/10 02:05:00;;;;;;;11.85;7.68;;;;;;;;;;3527981;40;20141;-53
2021/08/10 02:07:29;;;;;;;12.43;9.93;;;;;;;;;;3536473;40;20062;-51
2021/08/10 02:09:59;;;;;;;11.45;7.22;;;;;;;;;;3528151;40;20066;-54
2021/08/10 02:12:29;;;;;;;14.23;7.75;;;;;;;;;;3537327;40;20062;-53
2021/08/10 02:14:58;;;;;;;10.43;6.82;;;;;;;;;;3536280;40;20051;-53
2021/08/10 02:17:39;;;;;;;9.20;7.75;;;;;;;;;;3535824;40;20062;-53
2021/08/10 02:20:15;;;;;;;7.90;7.10;;;;;;;;;;3537559;40;20145;-53
2021/08/10 02:22:47;;;;;;;9.73;8.13;;;;;;;;;;3536132;40;20039;-53
2021/08/10 02:25:21;;;;;;;12.77;8.00;;;;;;;;;;3536304;40;20132;-51
2021/08/10 02:28:02;;;;;;;8.30;7.03;;;;;;;;;;3538029;40;20058;-57
2021/08/10 02:30:34;;;;;;;11.57;8.02;;;;;;;;;;3546010;40;20292;-58
2021/08/10 02:33:07;;;;;;;11.35;7.82;;;;;;;;;;3537446;40;20070;-57
2021/08/10 02:35:41;;;;;;;9.05;6.50;;;;;;;;;;3547054;40;20080;-53
2021/08/10 02:38:12;;;;;;;8.90;6.95;;;;;;;;;;3547014;40;20054;-54
2021/08/10 02:40:47;;;;;;;8.20;7.32;;;;;;;;;;3546784;40;20090;-55
2021/08/10 02:43:17;;;;;;;10.50;9.13;;;;;;;;;;3537846;40;20085;-58
2021/08/10 02:45:47;;;;;;;8.95;8.05;;;;;;;;;;3537780;40;20367;-56
2021/08/10 02:48:17;;;;;;;10.38;8.25;;;;;;;;;;3537725;40;20050;-56
2021/08/10 02:50:46;;;;;;;8.38;7.35;;;;;;;;;;3546701;40;20054;-54
2021/08/10 02:53:15;;;;;;;9.23;8.32;;;;;;;;;;3537708;40;20047;-54
2021/08/10 02:55:52;;;;;;;11.07;7.80;;;;;;;;;;3546927;40;20051;-55
2021/08/10 02:58:25;;;;;;;11.15;8.55;;;;;;;;;;3537391;40;20069;-52
2021/08/10 03:01:07;;;;;;;11.73;8.63;;;;;;;;;;3537297;40;20042;-55
2021/08/10 03:03:40;;;;;;;8.52;7.63;;;;;;;;;;3537527;40;20058;-53
2021/08/10 03:06:10;;;;;;;10.40;8.10;;;;;;;;;;3537930;40;20046;-57
2021/08/10 03:08:46;;;;;;;9.15;7.90;;;;;;;;;;3537630;40;20054;-53
2021/08/10 03:11:17;;;;;;;10.90;8.20;;;;;;;;;;3547325;40;20050;-56
2021/08/10 03:13:45;;;;;;;9.98;7.82;;;;;;;;;;3538805;40;20065;-56
2021/08/10 03:16:16;;;;;;;7.47;6.78;;;;;;;;;;3538947;40;20049;-55
2021/08/10 03:18:47;;;;;;;12.90;8.32;;;;;;;;;;3548276;40;20506;-59
2021/08/10 03:21:15;;;;;;;9.90;8.27;;;;;;;;;;3538700;40;20096;-55
2021/08/10 03:23:44;;;;;;;9.85;8.00;;;;;;;;;;3548387;40;20054;-52
2021/08/10 03:26:14;;;;;;;11.60;8.40;;;;;;;;;;3541990;40;20054;-55
2021/08/10 03:28:43;;;;;;;10.27;8.43;;;;;;;;;;3538432;40;20063;-56
2021/08/10 03:31:14;;;;;;;10.60;7.30;;;;;;;;;;3537288;40;20085;-55
2021/08/10 03:33:44;;;;;;;10.40;8.00;;;;;;;;;;3529190;40;20058;-56
2021/08/10 03:36:12;;;;;;;7.47;6.75;;;;;;;;;;3529170;40;20066;-55
2021/08/10 03:38:41;;;;;;;9.70;7.93;;;;;;;;;;3528832;40;20055;-52
2021/08/10 03:41:10;;;;;;;8.82;7.20;;;;;;;;;;3538195;40;20051;-56
2021/08/10 03:43:39;;;;;;;9.80;7.47;;;;;;;;;;3538509;40;20070;-54
2021/08/10 03:46:08;;;;;;;11.38;8.57;;;;;;;;;;3538062;40;20518;-55
2021/08/10 03:48:44;;;;;;;9.38;7.63;;;;;;;;;;3538223;40;20063;-55
2021/08/10 03:51:15;;;;;;;8.02;6.53;;;;;;;;;;3529083;40;20043;-54
2021/08/10 03:53:44;;;;;;;11.07;7.00;;;;;;;;;;3536856;40;20070;-58
2021/08/10 03:56:18;;;;;;;9.88;7.45;;;;;;;;;;3537167;40;20051;-60
2021/08/10 03:58:48;;;;;;;8.93;6.53;;;;;;;;;;3537164;40;20051;-54
2021/08/10 04:01:24;;;;;;;8.57;6.57;;;;;;;;;;3537990;40;20039;-56
2021/08/10 04:03:55;;;;;;;15.35;6.82;;;;;;;;;;3536954;40;20065;-54
2021/08/10 04:06:24;;;;;;;8.75;6.57;;;;;;;;;;3533974;40;20052;-53
2021/08/10 04:08:52;;;;;;;7.50;6.70;;;;;;;;;;3537965;40;20062;-55
2021/08/10 04:11:21;;;;;;;8.80;6.15;;;;;;;;;;3547023;40;20357;-54
2021/08/10 04:13:51;;;;;;;7.70;6.90;;;;;;;;;;3548023;40;20054;-53
2021/08/10 04:16:20;;;;;;;8.00;6.28;;;;;;;;;;3538629;40;20058;-53
2021/08/10 04:18:48;;;;;;;11.68;6.30;;;;;;;;;;3547985;40;20438;-59
2021/08/10 04:21:19;;;;;;;8.88;5.72;;;;;;;;;;3538611;40;20108;-57
2021/08/10 04:23:48;;;;;;;6.57;5.40;;;;;;;;;;3527971;40;20046;-56
2021/08/10 04:26:15;;;;;;;9.57;6.00;;;;;;;;;;3536960;40;20058;-55
2021/08/10 04:28:43;;;;;;;8.75;6.45;;;;;;;;;;3535949;40;20055;-59
2021/08/10 04:31:14;;;;;;;11.90;6.32;;;;;;;;;;3527652;40;20059;-54
2021/08/10 04:33:43;;;;;;;13.10;6.55;;;;;;;;;;3527724;40;20051;-58
2021/08/10 04:36:13;;;;;;;6.85;5.65;;;;;;;;;;3537091;40;20490;-55
2021/08/10 04:38:42;;;;;;;195.10;98.90;;;;;;;;;;3527990;40;20055;-49
2021/08/10 04:41:10;;;;;;;126.43;65.03;;;;;;;;;;3527738;40;20055;-62
2021/08/10 04:43:52;;;;;;;18.20;10.68;;;;;;;;;;3527864;40;20043;-52
2021/08/10 04:46:22;;;;;;;12.27;7.10;;;;;;;;;;3527649;40;20420;-63
2021/08/10 04:48:50;;;;;;;7.63;5.57;;;;;;;;;;3527988;40;20098;-56
2021/08/10 04:51:17;;;;;;;11.55;9.20;;;;;;;;;;3535793;40;20184;-56
2021/08/10 04:53:45;;;;;;;10.65;9.20;;;;;;;;;;3527156;40;20064;-56
2021/08/10 04:56:12;;;;;;;8.05;6.50;;;;;;;;;;3536505;40;20082;-50
2021/08/10 04:58:41;;;;;;;7.45;6.75;;;;;;;;;;3537059;40;20374;-59
2021/08/10 05:01:09;;;;;;;6.63;5.60;;;;;;;;;;3527206;40;20061;-55
2021/08/10 05:03:44;;;;;;;7.10;5.82;;;;;;;;;;3527734;40;20055;-58
2021/08/10 05:06:11;;;;;;;7.03;5.85;;;;;;;;;;3540855;40;20065;-51
2021/08/10 05:08:41;;;;;;;10.77;5.57;;;;;;;;;;3538431;40;20069;-50
2021/08/10 05:11:10;;;;;;;121.45;59.00;;;;;;;;;;3537968;40;20514;-48
2021/08/10 05:13:39;;;;;;;66.43;33.25;;;;;;;;;;3538064;40;20428;-51
2021/08/10 05:16:08;;;;;;;35.67;24.30;;;;;;;;;;3538367;40;20132;-51
2021/08/10 05:18:37;;;;;;;10.88;8.07;;;;;;;;;;3538238;40;20066;-52
2021/08/10 05:21:05;;;;;;;6.70;4.95;;;;;;;;;;3537662;40;20387;-55
2021/08/10 05:23:34;;;;;;;7.35;5.40;;;;;;;;;;3538294;40;20460;-58
2021/08/10 05:26:02;;;;;;;8.43;5.00;;;;;;;;;;3546785;40;20054;-59
2021/08/10 05:28:34;;;;;;;7.50;5.60;;;;;;;;;;3538346;40;20076;-61
2021/08/10 05:31:04;;;;;;;14.15;5.85;;;;;;;;;;3540847;40;20376;-57
2021/08/10 05:33:33;;;;;;;6.10;4.55;;;;;;;;;;3528002;40;20066;-60
2021/08/10 05:36:02;;;;;;;8.50;4.78;;;;;;;;;;3528627;40;20062;-60
2021/08/10 05:38:31;;;;;;;7.10;5.80;;;;;;;;;;3537456;40;20058;-61
2021/08/10 05:41:00;;;;;;;5.97;5.03;;;;;;;;;;3528417;40;20066;-62
2021/08/10 05:43:27;;;;;;;10.82;5.63;;;;;;;;;;3537381;40;20055;-61
2021/08/10 05:46:00;;;;;;;6.35;4.30;;;;;;;;;;3528276;40;20332;-61
2021/08/10 05:48:28;;;;;;;6.55;4.68;;;;;;;;;;3528388;40;20046;-61
2021/08/10 05:51:00;;;;;;;42.60;31.15;;;;;;;;;;3528333;40;20066;-60
2021/08/10 05:53:32;;;;;;;43.72;27.05;;;;;;;;;;3528367;40;20094;-61
2021/08/10 05:56:00;;;;;;;8.23;5.60;;;;;;;;;;3537353;40;20046;-60
2021/08/10 05:58:33;;;;;;;9.30;4.53;;;;;;;;;;3527771;40;20563;-57
2021/08/10 06:01:04;;;;;;;5.05;4.28;;;;;;;;;;3527333;40;20085;-61
2021/08/10 06:03:35;;;;;;;7.00;4.57;;;;;;;;;;3527888;40;20062;-61
2021/08/10 06:06:04;;;;;;;6.32;4.70;;;;;;;;;;3530180;40;20058;-62
2021/08/10 06:08:38;;;;;;;5.30;4.45;;;;;;;;;;3536507;40;20059;-61
2021/08/10 06:11:05;;;;;;;5.18;4.18;;;;;;;;;;3536239;40;20065;-60
2021/08/10 06:13:36;;;;;;;5.50;3.78;;;;;;;;;;3530762;40;20083;-61
2021/08/10 06:16:04;;;;;;;4.90;3.40;;;;;;;;;;3537339;40;20053;-62
2021/08/10 06:18:34;;;;;;;6.30;3.33;;;;;;;;;;3537818;40;20062;-59
2021/08/10 06:21:15;;;;;;;4.78;3.47;;;;;;;;;;3546429;40;20412;-60
2021/08/10 06:23:43;;;;;;;5.25;3.13;;;;;;;;;;3537518;40;20050;-62
2021/08/10 06:26:11;;;;;;;8.95;3.50;;;;;;;;;;3536799;40;20062;-61
2021/08/10 06:28:41;;;;;;;4.45;3.13;;;;;;;;;;3537074;40;20050;-61
2021/08/10 06:31:09;;;;;;;5.63;3.20;;;;;;;;;;3537911;40;20573;-60
2021/08/10 06:33:37;;;;;;;19.70;14.52;;;;;;;;;;3537877;40;20365;-61
2021/08/10 06:36:10;;;;;;;10.30;7.03;;;;;;;;;;3537255;40;20416;-61
2021/08/10 06:38:37;;;;;;;5.25;3.30;;;;;;;;;;3543870;40;20062;-58
2021/08/10 06:41:05;;;;;;;4.70;2.90;;;;;;;;;;3537353;40;20402;-60
2021/08/10 06:43:32;;;;;;;5.18;3.25;;;;;;;;;;3536914;40;20539;-58
2021/08/10 06:46:18;;;;;;;4.65;3.30;;;;;;;;;;3543854;40;20057;-60
2021/08/10 06:48:46;;;;;;;3.80;2.85;;;;;;;;;;3532206;40;20447;-58
2021/08/10 06:51:14;;;;;;;10.13;3.58;;;;;;;;;;3529313;40;20082;-60
2021/08/10 06:53:41;;;;;;;5.38;3.35;;;;;;;;;;3538107;40;20106;-60
2021/08/10 06:56:14;;;;;;;4.90;3.08;;;;;;;;;;3529453;40;20055;-61
2021/08/10 06:58:42;;;;;;;6.28;3.63;;;;;;;;;;3538602;40;20301;-60
2021/08/10 07:01:23;;;;;;;5.90;3.53;;;;;;;;;;3532127;40;20066;-60
2021/08/10 07:03:53;;;;;;;5.93;3.70;;;;;;;;;;3533156;40;20416;-59
2021/08/10 07:06:23;;;;;;;3.95;3.30;;;;;;;;;;3540961;40;20653;-60
2021/08/10 07:08:53;;;;;;;4.40;3.55;;;;;;;;;;3528914;40;20065;-58
2021/08/10 07:11:22;;;;;;;5.45;3.90;;;;;;;;;;3529035;40;20574;-57
2021/08/10 07:13:54;;;;;;;4.70;3.25;;;;;;;;;;3537998;40;20050;-57
2021/08/10 07:16:21;;;;;;;6.70;4.45;;;;;;;;;;3529090;40;20761;-60
2021/08/10 07:18:51;;;;;;;5.13;3.55;;;;;;;;;;3528250;40;20066;-57
2021/08/10 07:21:21;;;;;;;9.00;4.20;;;;;;;;;;3527992;40;20050;-59
2021/08/10 07:23:58;;;;;;;3.58;2.83;;;;;;;;;;3528246;40;20066;-59
2021/08/10 07:26:26;;;;;;;63.70;37.40;;;;;;;;;;3529292;40;20061;-55
2021/08/10 07:28:57;;;;;;;19.08;11.43;;;;;;;;;;3529115;40;20086;-56
2021/08/10 07:31:28;;;;;;;8.55;4.20;;;;;;;;;;3538083;40;20090;-58
2021/08/10 07:33:59;;;;;;;5.18;3.03;;;;;;;;;;3529067;40;20443;-61
2021/08/10 07:36:29;;;;;;;6.13;3.15;;;;;;;;;;3529104;40;20061;-61
2021/08/10 07:38:59;;;;;;;4.72;2.70;;;;;;;;;;3529333;40;20057;-61
2021/08/10 07:41:28;;;;;;;4.13;2.58;;;;;;;;;;3535488;40;20056;-61
2021/08/10 07:43:55;;;;;;;3.50;2.85;;;;;;;;;;3538420;40;20062;-60
2021/08/10 07:46:23;;;;;;;4.72;2.53;;;;;;;;;;3538186;40;20057;-61
2021/08/10 07:49:06;;;;;;;2.85;2.42;;;;;;;;;;3528510;40;20058;-61
2021/08/10 07:52:26;;;;;;;5.47;2.72;;;;;;;;;;3537626;40;20058;-62
2021/08/10 07:54:54;;;;;;;5.13;2.63;;;;;;;;;;3536772;40;20050;-59
2021/08/10 07:57:21;;;;;;;4.47;2.40;;;;;;;;;;3537874;40;20077;-61
2021/08/10 07:59:49;;;;;;;4.22;2.63;;;;;;;;;;3537907;40;20064;-61
2021/08/10 08:02:21;;;;;;;3.97;2.30;;;;;;;;;;3528935;40;20050;-60
2021/08/10 08:04:48;;;;;;;8.80;2.67;;;;;;;;;;3544594;40;20058;-59
2021/08/10 08:07:16;;;;;;;92.55;58.00;;;;;;;;;;3537310;40;20140;-59
2021/08/10 08:09:44;;;;;;;15.63;11.27;;;;;;;;;;3538684;40;20062;-61
2021/08/10 08:12:11;;;;;;;5.85;3.63;;;;;;;;;;3531723;40;20417;-61
2021/08/10 08:14:38;;;;;;;3.67;2.20;;;;;;;;;;3528842;40;20065;-61
2021/08/10 08:17:06;;;;;;;5.15;2.50;;;;;;;;;;3528763;40;20070;-60
2021/08/10 08:19:34;;;;;;;3.95;2.30;;;;;;;;;;3529128;40;20055;-60
2021/08/10 08:22:04;;;;;;;7.13;2.25;;;;;;;;;;3528764;40;20059;-53
2021/08/10 08:24:31;;;;;;;6.40;2.38;;;;;;;;;;3526820;40;20095;-58
2021/08/10 08:27:00;;;;;;;3.90;2.15;;;;;;;;;;3519051;40;20063;-61
2021/08/10 08:29:27;;;;;;;6.32;1.95;;;;;;;;;;3544806;40;20054;-60
2021/08/10 08:31:54;;;;;;;3.55;2.00;;;;;;;;;;3533106;40;20050;-61
2021/08/10 08:34:27;;;;;;;3.75;1.92;;;;;;;;;;3536964;40;20058;-61
2021/08/10 08:36:57;;;;;;;5.30;2.05;;;;;;;;;;3528187;40;20154;-61
2021/08/10 08:39:26;;;;;;;3.10;1.90;;;;;;;;;;3536781;40;20046;-62
2021/08/10 08:41:54;;;;;;;27.13;15.10;;;;;;;;;;3536649;40;20061;-60
2021/08/10 08:44:22;;;;;;;124.82;66.85;;;;;;;;;;3528488;40;20061;-61
2021/08/10 08:46:50;;;;;;;5.40;3.03;;;;;;;;;;3537851;40;20066;-60
2021/08/10 08:49:22;;;;;;;3.35;1.80;;;;;;;;;;3528455;40;20054;-60
2021/08/10 08:51:51;;;;;;;4.50;1.87;;;;;;;;;;3538162;40;20110;-59
2021/08/10 08:54:24;;;;;;;3.13;2.00;;;;;;;;;;3528324;40;20102;-60
2021/08/10 08:56:52;;;;;;;3.92;1.60;;;;;;;;;;3528622;40;20147;-61
2021/08/10 08:59:21;;;;;;;3.58;1.70;;;;;;;;;;3528822;40;20073;-61
2021/08/10 09:01:51;;;;;;;2.88;1.90;;;;;;;;;;3528494;40;20031;-61
2021/08/10 09:04:21;;;;;;;3.72;2.10;;;;;;;;;;3529020;40;20060;-61
2021/08/10 09:06:55;;;;;;;3.70;1.70;;;;;;;;;;3534764;40;20055;-61
2021/08/10 09:09:28;;;;;;;3.65;1.40;;;;;;;;;;3510930;40;20496;-61
2021/08/10 09:12:15;;;;;;;5.95;1.80;;;;;;;;;;3527686;40;20325;-61
2021/08/10 09:14:48;;;;;;;2.83;1.17;;;;;;;;;;3518698;40;20095;-62
2021/08/10 09:17:22;;;;;;;1.95;1.20;;;;;;;;;;3527945;40;20051;-61
2021/08/10 09:20:02;;;;;;;3.53;1.40;;;;;;;;;;3526844;40;20066;-61
2021/08/10 09:22:38;;;;;;;2.78;1.60;;;;;;;;;;3518618;40;20047;-62
2021/08/10 09:25:25;;;;;;;5.60;1.50;;;;;;;;;;3528184;40;20058;-62
2021/08/10 09:28:05;;;;;;;5.13;1.67;;;;;;;;;;3518838;40;20063;-60
2021/08/10 09:30:34;;;;;;;4.60;1.75;;;;;;;;;;3522583;40;20051;-61
2021/08/10 09:33:04;;;;;;;89.43;51.08;;;;;;;;;;3528494;40;20050;-62
2021/08/10 09:35:38;;;;;;;26.58;14.82;;;;;;;;;;3537549;40;20413;-61
2021/08/10 09:38:16;;;;;;;;;;;;;;;;;;3528910;40;20062;-61
2021/08/10 09:40:54;;;;;;;5.30;2.08;;;;;;;;;;3537321;40;19934;-63
2021/08/10 09:43:32;;;;;;;5.53;1.80;;;;;;;;;;3537366;40;20153;-61
2021/08/10 09:46:27;;;;;;;3.00;1.55;;;;;;;;;;3536890;40;20420;-61
2021/08/10 09:48:57;;;;;;;3.90;2.00;;;;;;;;;;3528394;40;20066;-61
2021/08/10 09:51:32;;;;;;;6.32;1.60;;;;;;;;;;3537250;40;20157;-61
2021/08/10 09:54:15;;;;;;;2.47;1.73;;;;;;;;;;3528467;40;20047;-61
2021/08/10 09:56:52;;;;;;;4.80;1.70;;;;;;;;;;3537158;40;20440;-62
2021/08/10 09:59:27;;;;;;;3.20;1.65;;;;;;;;;;3528195;40;20421;-62
2021/08/10 10:02:03;;;;;;;4.25;1.60;;;;;;;;;;3527981;40;20097;-61
2021/08/10 10:04:32;;;;;;;5.97;1.90;;;;;;;;;;3537463;40;20050;-61
2021/08/10 10:07:11;;;;;;;4.25;2.03;;;;;;;;;;3528252;40;20081;-62
2021/08/10 10:09:43;;;;;;;2.72;1.73;;;;;;;;;;3537198;40;20086;-62
2021/08/10 10:12:14;;;;;;;3.88;1.63;;;;;;;;;;3537428;40;20059;-63
2021/08/10 10:14:45;;;;;;;1.90;1.48;;;;;;;;;;3536289;40;20054;-62
2021/08/10 10:17:14;;;;;;;3.05;1.58;;;;;;;;;;3537642;40;20043;-60
2021/08/10 10:19:43;;;;;;;3.70;1.60;;;;;;;;;;3537024;40;20062;-62
2021/08/10 10:22:17;;;;;;;3.22;2.13;;;;;;;;;;3547040;40;20062;-62
2021/08/10 10:24:56;;;;;;;4.22;1.80;;;;;;;;;;3547266;40;20057;-62
2021/08/10 10:27:24;;;;;;;3.00;1.60;;;;;;;;;;3546839;40;20069;-62
2021/08/10 10:29:54;;;;;;;3.38;1.60;;;;;;;;;;3547166;40;20058;-62
2021/08/10 10:32:23;;;;;;;7.18;3.42;;;;;;;;;;3544367;40;20112;-62
2021/08/10 10:34:51;;;;;;;2.92;1.30;;;;;;;;;;3537881;40;20407;-61
2021/08/10 10:37:27;;;;;;;3.42;1.30;;;;;;;;;;3547132;40;20069;-61
2021/08/10 10:40:00;;;;;;;3.45;1.17;;;;;;;;;;3547345;40;20057;-65
2021/08/10 10:42:28;;;;;;;2.58;1.38;;;;;;;;;;3547086;40;20416;-64
2021/08/10 10:44:56;;;;;;;2.13;1.20;;;;;;;;;;3546639;40;20066;-63
2021/08/10 10:47:29;;;;;;;1.98;1.23;;;;;;;;;;3547313;40;20086;-63
2021/08/10 10:49:57;;;;;;;5.28;1.42;;;;;;;;;;3546805;40;20050;-62
2021/08/10 10:52:31;;;;;;;3.30;1.30;;;;;;;;;;3546752;40;20050;-62
2021/08/10 10:54:59;;;;;;;2.40;1.20;;;;;;;;;;3546967;40;20058;-64
2021/08/10 10:57:32;;;;;;;5.03;1.30;;;;;;;;;;3546861;40;20077;-64
2021/08/10 11:00:12;;;;;;;2.65;1.33;;;;;;;;;;3546944;40;20073;-61
2021/08/10 11:02:40;;;;;;;1.73;1.00;;;;;;;;;;3546860;40;20372;-64
2021/08/10 11:05:21;;;;;;;2.80;1.25;;;;;;;;;;3546936;40;20416;-63
2021/08/10 11:07:54;;;;;;;1.63;0.90;;;;;;;;;;3527961;40;20058;-63
2021/08/10 11:10:37;;;;;;;3.60;1.13;;;;;;;;;;3536546;40;20109;-62
2021/08/10 11:13:17;;;;;;;4.22;1.20;;;;;;;;;;3537546;40;20069;-64
2021/08/10 11:15:47;;;;;;;1.75;1.10;;;;;;;;;;3536353;40;20058;-64
2021/08/10 11:18:17;;;;;;;2.95;1.23;;;;;;;;;;3537055;40;20051;-65
2021/08/10 11:20:51;;;;;;;3.35;1.48;;;;;;;;;;3536862;40;20333;-63
2021/08/10 11:23:21;;;;;;;4.25;1.42;;;;;;;;;;3536956;40;20459;-64
2021/08/10 11:25:51;;;;;;;2.63;1.90;;;;;;;;;;3527663;40;20176;-63
2021/08/10 11:28:26;;;;;;;3.13;1.40;;;;;;;;;;3536962;40;20054;-62
2021/08/10 11:31:02;;;;;;;2.30;1.60;;;;;;;;;;3537109;40;20091;-64
2021/08/10 11:33:31;;;;;;;2.63;1.73;;;;;;;;;;3538531;40;20051;-63
2021/08/10 11:36:14;;;;;;;2.47;1.70;;;;;;;;;;3538259;40;20063;-63
2021/08/10 11:38:45;;;;;;;3.10;1.40;;;;;;;;;;3538186;40;20432;-63
2021/08/10 11:41:18;;;;;;;2.20;1.25;;;;;;;;;;3538364;40;20138;-64
2021/08/10 11:43:49;;;;;;;1.80;1.00;;;;;;;;;;3538160;40;20070;-63
2021/08/10 11:46:39;;;;;;;3.60;1.30;;;;;;;;;;3538154;40;20051;-63
2021/08/10 11:49:08;;;;;;;1.80;1.08;;;;;;;;;;3538652;40;20063;-64
2021/08/10 11:51:41;;;;;;;2.40;1.05;;;;;;;;;;3538137;40;20054;-65
2021/08/10 11:54:18;;;;;;;8.43;5.32;;;;;;;;;;3538269;40;20067;-65
2021/08/10 11:56:47;;;;;;;4.10;2.50;;;;;;;;;;3538049;40;20055;-63
2021/08/10 11:59:18;;;;;;;2.75;1.02;;;;;;;;;;3538170;40;20051;-62
2021/08/10 12:01:47;;;;;;;1.30;0.80;;;;;;;;;;3538198;40;20334;-64
2021/08/10 12:04:23;;;;;;;2.22;0.80;;;;;;;;;;3529210;40;20321;-65
2021/08/10 12:06:53;;;;;;;1.98;0.77;;;;;;;;;;3545123;40;20139;-63
2021/08/10 12:09:25;;;;;;;1.52;0.73;;;;;;;;;;3548493;40;20046;-61
2021/08/10 12:11:57;;;;;;;3.25;1.10;;;;;;;;;;3544154;40;20125;-62
2021/08/10 12:14:29;;;;;;;2.00;0.87;;;;;;;;;;3537822;40;20061;-64
2021/08/10 12:17:04;;;;;;;2.58;0.93;;;;;;;;;;3538171;40;20051;-62
2021/08/10 12:19:49;;;;;;;2.00;0.82;;;;;;;;;;3537097;40;20706;-63
2021/08/10 12:22:31;;;;;;;2.80;1.10;;;;;;;;;;3537769;40;20433;-63
2021/08/10 12:25:00;;;;;;;1.95;1.05;;;;;;;;;;3537683;40;20051;-63
2021/08/10 12:27:31;;;;;;;1.92;0.90;;;;;;;;;;3538583;40;20058;-65
2021/08/10 12:30:00;;;;;;;2.17;1.00;;;;;;;;;;3528855;40;20050;-63
2021/08/10 12:32:52;;;;;;;2.60;0.90;;;;;;;;;;3537779;40;20114;-63
2021/08/10 12:36:10;;;;;;;4.20;1.30;;;;;;;;;;3538255;40;20045;-63
2021/08/10 12:38:38;;;;;;;2.95;1.00;;;;;;;;;;3538113;40;20070;-62
2021/08/10 12:41:05;;;;;;;2.88;1.10;;;;;;;;;;3537586;40;20051;-65
2021/08/10 12:43:34;;;;;;;3.70;1.17;;;;;;;;;;3537176;40;20062;-63
2021/08/10 12:46:37;;;;;;;2.22;1.10;;;;;;;;;;3538214;40;20761;-61
2021/08/10 12:49:16;;;;;;;7.85;1.13;;;;;;;;;;3535361;40;20085;-62
2021/08/10 12:52:08;;;;;;;3.60;1.30;;;;;;;;;;3538043;40;20523;-64
2021/08/10 12:54:46;;;;;;;2.92;1.00;;;;;;;;;;3533274;40;20062;-64
2021/08/10 12:57:29;;;;;;;5.28;1.45;;;;;;;;;;3529427;40;20082;-64
2021/08/10 12:59:58;;;;;;;2.30;1.13;;;;;;;;;;3537867;40;20062;-63
2021/08/10 13:02:50;;;;;;;2.33;1.00;;;;;;;;;;3537489;40;20407;-62
2021/08/10 13:05:20;;;;;;;2.33;1.13;;;;;;;;;;3532962;40;20061;-65
2021/08/10 13:08:01;;;;;;;1.77;1.00;;;;;;;;;;3537652;40;20131;-63
2021/08/10 13:10:30;;;;;;;3.25;1.10;;;;;;;;;;3537938;40;20054;-63
2021/08/10 13:13:00;;;;;;;1.40;0.80;;;;;;;;;;3537716;40;20065;-63
2021/08/10 13:15:38;;;;;;;2.72;1.35;;;;;;;;;;3537936;40;20062;-63
2021/08/10 13:18:26;;;;;;;3.00;1.10;;;;;;;;;;3537711;40;20055;-64
2021/08/10 13:21:02;;;;;;;7.97;4.30;;;;;;;;;;3537738;40;20081;-63
2021/08/10 13:23:35;;;;;;;2.83;1.65;;;;;;;;;;3528554;40;20427;-62
2021/08/10 13:26:05;;;;;;;6.40;1.33;;;;;;;;;;3536922;40;20061;-61
2021/08/10 13:28:37;;;;;;;2.33;1.00;;;;;;;;;;3537805;40;20059;-61
2021/08/10 13:31:23;;;;;;;2.53;1.10;;;;;;;;;;3537914;40;20250;-62
2021/08/10 13:34:05;;;;;;;3.15;1.05;;;;;;;;;;3537685;40;20054;-63
2021/08/10 13:36:33;;;;;;;3.22;1.08;;;;;;;;;;3537560;40;20074;-62
2021/08/10 13:39:02;;;;;;;2.05;1.05;;;;;;;;;;3537617;40;20055;-61
2021/08/10 13:41:35;;;;;;;2.08;0.90;;;;;;;;;;3537976;40;20316;-61
2021/08/10 13:44:03;;;;;;;2.08;1.02;;;;;;;;;;3528353;40;20412;-63
2021/08/10 13:46:31;;;;;;;3.28;1.25;;;;;;;;;;3537349;40;20083;-62
2021/08/10 13:49:00;;;;;;;2.50;1.17;;;;;;;;;;3537579;40;20454;-62
2021/08/10 13:51:28;;;;;;;55.80;49.97;;;;;;;;;;3537526;40;20063;-67
2021/08/10 13:53:56;;;;;;;5.03;2.80;;;;;;;;;;3547195;40;20056;-60
2021/08/10 13:56:26;;;;;;;3.08;1.05;;;;;;;;;;3547071;40;20073;-60
2021/08/10 13:58:57;;;;;;;2.10;0.90;;;;;;;;;;3537856;40;20136;-60
2021/08/10 14:01:31;;;;;;;3.20;1.40;;;;;;;;;;3547400;40;20062;-61
2021/08/10 14:03:59;;;;;;;2.83;1.10;;;;;;;;;;3547341;40;20057;-59
2021/08/10 14:06:27;;;;;;;2.97;1.25;;;;;;;;;;3547199;40;20057;-60
2021/08/10 14:08:54;;;;;;;3.97;1.42;;;;;;;;;;3547368;40;20070;-60
2021/08/10 14:11:21;;;;;;;5.68;1.25;;;;;;;;;;3544858;40;20094;-60
2021/08/10 14:13:49;;;;;;;1.90;1.00;;;;;;;;;;3537068;40;20046;-57
2021/08/10 14:16:20;;;;;;;2.92;1.38;;;;;;;;;;3536186;40;20058;-60
2021/08/10 14:18:48;;;;;;;3.25;1.30;;;;;;;;;;3536111;40;20519;-61
2021/08/10 14:21:16;;;;;;;8.27;4.45;;;;;;;;;;3536250;40;20054;-60
2021/08/10 14:23:44;;;;;;;10.30;5.60;;;;;;;;;;3536122;40;20058;-61
2021/08/10 14:26:12;;;;;;;5.57;3.33;;;;;;;;;;3536327;40;20058;-60
2021/08/10 14:28:41;;;;;;;5.43;2.60;;;;;;;;;;3536421;40;20058;-60
2021/08/10 14:31:12;;;;;;;5.25;2.55;;;;;;;;;;3537367;40;20059;-60
2021/08/10 14:33:41;;;;;;;4.85;2.65;;;;;;;;;;3537271;40;20420;-61
2021/08/10 14:36:10;;;;;;;5.60;2.05;;;;;;;;;;3537099;40;20059;-60
2021/08/10 14:38:39;;;;;;;9.90;7.72;;;;;;;;;;3537524;40;20062;-61
2021/08/10 14:41:07;;;;;;;4.72;2.35;;;;;;;;;;3537340;40;20054;-59
2021/08/10 14:43:34;;;;;;;4.03;3.05;;;;;;;;;;3537429;40;20134;-60
2021/08/10 14:46:04;;;;;;;4.55;3.63;;;;;;;;;;3536851;40;20054;-60
2021/08/10 14:48:32;;;;;;;5.47;1.98;;;;;;;;;;3537169;40;20075;-61
2021/08/10 14:51:00;;;;;;;13.10;3.92;;;;;;;;;;3536969;40;20289;-61
2021/08/10 14:53:28;;;;;;;14.63;4.47;;;;;;;;;;3537152;40;20051;-61
2021/08/10 14:55:56;;;;;;;4.13;2.08;;;;;;;;;;3536892;40;20061;-62
2021/08/10 14:58:25;;;;;;;127.95;72.88;;;;;;;;;;3537277;40;20099;-68
2021/08/10 15:00:53;;;;;;;39.65;22.20;;;;;;;;;;3536960;40;20070;-61
2021/08/10 15:03:21;;;;;;;11.40;6.45;;;;;;;;;;3536983;40;20411;-61
2021/08/10 15:05:48;;;;;;;7.28;5.13;;;;;;;;;;3537426;40;20090;-64
2021/08/10 15:08:18;;;;;;;8.90;7.47;;;;;;;;;;3538697;40;20058;-62
2021/08/10 15:10:45;;;;;;;15.32;11.55;;;;;;;;;;3529530;40;20070;-62